Sunday, January 20, 2019, 2:21 AM EST
Back to Local

KCDW, Caldwell Essex County Airport

Location: Fairfield, NJ, United States Lat: 40.883
Local Time: 2:21 AM EST ( 7:21 GMT) Lon: -74.283
Time Zone: US/Eastern Elev: 173 ft

Show me the last for .
Show Decoded

2019-01-20 01:53 METAR KCDW 200653Z AUTO VRB04KT 3SM UP BR OVC007 00/00 A2978 RMK AO2 RAE01UPB01
                 SLP090 P0012 T00000000 =
2019-01-20 00:53 METAR KCDW 200553Z AUTO 07011KT 3SM RA BR OVC007 01/00 A2979 RMK AO2 SLP094
                 P0014 60047 T00060000 10011 20000 58047 =
2019-01-19 23:53 METAR KCDW 200453Z AUTO 08011KT 3SM RA BR OVC008 01/01 A2984 RMK AO2 CIG 007V010
                 SLP110 P0011 T00060006 400171056 =
2019-01-19 22:53 METAR KCDW 200353Z AUTO 08010KT 3SM RA BR OVC006 01/01 A2988 RMK AO2
                 UPB34E52RAB52SNE34B36E49 CIG 005V009 SLP127 P0011 T00060006 =
2019-01-19 22:50 METAR KCDW 200350Z AUTO 07009KT 3SM UP BR OVC006 01/01 A2989 RMK AO2
                 UPB34SNE34B36E49 P0011 =
2019-01-19 21:53 METAR KCDW 200253Z 06008G14KT 1/2SM SN FG OVC004 00/00 A2993 RMK AO2 SLP141
                 P0006 60011 T00000000 58041 =
2019-01-19 20:53 METAR KCDW 200153Z 08009KT 3/4SM -SN BR SCT004 OVC010 00/00 A2997 RMK AO2 PRESFR
                 SLP156 P0005 T00000000 =
2019-01-19 20:02 METAR KCDW 200102Z 09006KT 3/4SM -SN BR BKN013 OVC017 01/M01 A3003 RMK AO2 P0000
                 T00061006 =
2019-01-19 19:50 METAR KCDW 200050Z 10004KT 1 3/4SM -SN OVC019 01/M02 A3003 RMK AO2 SNB12 SLP176
                 P0000 T00111017 =
2019-01-19 19:49 METAR KCDW 200049Z 09005KT 1 3/4SM -SN OVC019 01/M02 A3003 RMK AO2 SNB12 P0000 =
2019-01-19 18:53 METAR KCDW 192353Z 07006KT 7SM OVC023 01/M03 A3005 RMK AO2 PRESFR SLP182 60000
                 T00061028 10017 20006 58033 =
2019-01-19 17:53 METAR KCDW 192253Z 08005KT 10SM OVC025 01/M03 A3010 RMK AO2 SNB28E34 SLP199
                 P0000 T00111033 =
2019-01-19 16:53 METAR KCDW 192153Z 07004KT 10SM OVC028 01/M04 A3012 RMK AO2 SLP208 T00111044 =
2019-01-19 15:53 METAR KCDW 192053Z 09007KT 10SM OVC031 01/M05 A3015 RMK AO2 SLP216 T00111050
                 56015 =
2019-01-19 14:53 METAR KCDW 191953Z 10006KT 10SM OVC033 01/M06 A3016 RMK AO2 SLP221 T00111056 =
2019-01-19 13:53 METAR KCDW 191853Z 11007KT 10SM BKN033 OVC045 01/M04 A3017 RMK AO2 SLP224
                 T00111044 =
2019-01-19 12:53 METAR KCDW 191753Z 10006KT 10SM BKN032 OVC047 01/M04 A3019 RMK AO2 SLP231
                 T00111044 10017 21056 58028 =
2019-01-19 11:53 METAR KCDW 191653Z VRB05KT 10SM OVC047 02/M05 A3024 RMK AO2 SLP248 T00171050 =
2019-01-19 10:53 METAR KCDW 191553Z 08006KT 10SM OVC048 01/M05 A3027 RMK AO2 SLP257 T00061050 =
2019-01-19 09:53 METAR KCDW 191453Z 00000KT 10SM OVC050 00/M05 A3028 RMK AO2 SLP259 T00001050
                 51017 =
2019-01-19 08:53 METAR KCDW 191353Z 00000KT 10SM CLR M02/M04 A3027 RMK AO2 SLP257 T10171044 =
2019-01-19 07:53 METAR KCDW 191253Z 00000KT 10SM CLR M04/M06 A3024 RMK AO2 SLP247 T10441056 =
2019-01-19 06:53 METAR KCDW 191153Z AUTO 00000KT 10SM CLR M05/M06 A3023 RMK AO2 SLP242 T10501061
                 11028 21056 50004 =
2019-01-19 05:53 METAR KCDW 191053Z AUTO 18003KT 10SM CLR M05/M07 A3024 RMK AO2 SLP246 T10501067
                 =
2019-01-19 04:53 METAR KCDW 190953Z AUTO 18003KT 10SM CLR M04/M06 A3022 RMK AO2 SLP239 T10391056
                 =
2019-01-19 03:53 METAR KCDW 190853Z AUTO 31003KT 8SM CLR M05/M06 A3021 RMK AO2 SLP238 T10501056
                 50008 =
2019-01-19 02:53 METAR KCDW 190753Z AUTO 00000KT 8SM CLR M04/M05 A3023 RMK AO2 SLP244 T10441050 =

Support USWX by starting your Amazon purchase here.